createdAt,value
2022-12-20T00:00:43.463Z,102212.81
2022-12-20T00:02:15.652Z,102225.47
2022-12-20T00:03:50.444Z,102224.41
2022-12-20T00:05:22.380Z,102224.41
2022-12-20T00:06:54.521Z,102218.00
2022-12-20T00:08:26.549Z,102211.81
2022-12-20T00:09:58.569Z,102213.91
2022-12-20T00:11:30.743Z,102210.16
2022-12-20T00:13:02.911Z,102209.28
2022-12-20T00:14:35.142Z,102210.28
2022-12-20T00:16:11.031Z,102212.16
2022-12-20T00:17:43.154Z,102211.63
2022-12-20T00:19:15.198Z,102219.69
2022-12-20T00:20:47.156Z,102214.81
2022-12-20T00:22:19.116Z,102214.59
2022-12-20T00:23:52.555Z,102216.16
2022-12-20T00:25:24.702Z,102221.50
2022-12-20T00:26:56.648Z,102221.03
2022-12-20T00:28:28.761Z,102213.22
2022-12-20T00:30:00.790Z,102228.88
2022-12-20T00:31:33.529Z,102235.09
2022-12-20T00:33:05.563Z,102220.06
2022-12-20T00:34:37.833Z,102218.94
2022-12-20T00:36:09.971Z,102209.88
2022-12-20T00:37:42.054Z,102220.88
2022-12-20T00:39:14.117Z,102215.81
2022-12-20T00:40:46.121Z,102221.13
2022-12-20T00:42:18.241Z,102219.13
2022-12-20T00:43:50.448Z,102213.47
2022-12-20T00:45:22.364Z,102212.22
2022-12-20T00:46:54.569Z,102214.41
2022-12-20T00:48:27.401Z,102214.41
2022-12-20T00:49:59.490Z,102219.34
2022-12-20T00:51:32.995Z,102204.81
2022-12-20T00:53:04.920Z,102212.13
2022-12-20T00:54:37.030Z,102217.91
2022-12-20T00:56:09.919Z,102211.06
2022-12-20T00:57:41.962Z,102209.06
2022-12-20T00:59:13.984Z,102210.59
2022-12-20T01:00:49.161Z,102209.19
2022-12-20T01:03:58.180Z,102207.53
2022-12-20T01:05:31.383Z,102198.06
2022-12-20T01:07:03.672Z,102200.97
2022-12-20T01:08:35.659Z,102201.75
2022-12-20T01:10:08.286Z,102196.56
2022-12-20T01:11:40.442Z,102196.44
2022-12-20T01:13:12.487Z,102200.75
2022-12-20T01:14:44.479Z,102195.56
2022-12-20T01:16:23.410Z,102189.59
2022-12-20T01:17:55.814Z,102186.38
2022-12-20T01:19:27.823Z,102196.47
2022-12-20T01:21:10.246Z,102200.69
2022-12-20T01:22:47.333Z,102198.03
2022-12-20T01:24:20.805Z,102195.50
2022-12-20T01:25:52.764Z,102190.34
2022-12-20T01:27:24.819Z,102191.34
2022-12-20T01:28:59.218Z,102181.19
2022-12-20T01:30:31.517Z,102176.22
2022-12-20T01:32:03.591Z,102176.34
2022-12-20T01:33:36.607Z,102176.59
2022-12-20T01:35:11.874Z,102178.22
2022-12-20T01:36:44.042Z,102179.66
2022-12-20T01:38:15.979Z,102180.41
2022-12-20T01:39:47.961Z,102167.63
2022-12-20T01:41:22.613Z,102174.81
2022-12-20T01:42:54.612Z,102164.47
2022-12-20T01:44:26.527Z,102173.06
2022-12-20T01:45:58.568Z,102164.94
2022-12-20T01:49:13.644Z,102159.53
2022-12-20T01:50:47.015Z,102151.72
2022-12-20T01:52:23.651Z,102157.56
2022-12-20T01:54:03.859Z,102161.88
2022-12-20T01:55:36.113Z,102164.94
2022-12-20T01:57:13.495Z,102160.22
2022-12-20T01:58:47.183Z,102164.28
2022-12-20T02:00:19.962Z,102158.34
2022-12-20T02:01:52.175Z,102153.34
2022-12-20T02:03:24.360Z,102157.25
2022-12-20T02:04:56.495Z,102159.88
2022-12-20T02:06:28.603Z,102152.63
2022-12-20T02:08:00.756Z,102152.88
2022-12-20T02:09:33.402Z,102142.19
2022-12-20T02:11:08.168Z,102140.31
2022-12-20T02:12:47.545Z,102131.97
2022-12-20T02:15:04.633Z,102140.69
2022-12-20T02:17:03.171Z,102136.81
2022-12-20T02:18:53.818Z,102123.81
2022-12-20T02:21:03.101Z,102128.22
2022-12-20T02:23:06.563Z,102125.03
2022-12-20T02:25:09.100Z,102126.78
2022-12-20T02:27:22.407Z,102117.97
2022-12-20T02:29:22.827Z,102115.66
2022-12-20T02:30:55.386Z,102115.75
2022-12-20T02:32:43.507Z,102116.09
2022-12-20T02:34:15.923Z,102121.16
2022-12-20T02:35:48.065Z,102117.75
2022-12-20T02:37:20.086Z,102123.69
2022-12-20T02:38:52.974Z,102111.94
2022-12-20T02:40:37.005Z,102111.13
2022-12-20T02:42:10.404Z,102118.00
2022-12-20T02:44:02.299Z,102114.09
2022-12-20T02:45:37.750Z,102112.47
2022-12-20T02:47:14.765Z,102105.50
2022-12-20T02:48:48.252Z,102107.28
2022-12-20T02:50:30.894Z,102110.03
2022-12-20T02:52:04.012Z,102108.03
2022-12-20T02:53:37.162Z,102111.69
2022-12-20T02:55:09.362Z,102112.56
2022-12-20T02:56:48.267Z,102111.38
2022-12-20T02:58:30.930Z,102111.47
2022-12-20T03:00:09.955Z,102104.63
2022-12-20T03:01:46.744Z,102110.59
2022-12-20T03:03:24.986Z,102105.19
2022-12-20T03:04:58.139Z,102107.28
2022-12-20T03:06:31.164Z,102097.16
2022-12-20T03:08:03.313Z,102106.06
2022-12-20T03:09:37.970Z,102116.66
2022-12-20T03:11:09.984Z,102113.00
2022-12-20T03:12:41.972Z,102110.78
2022-12-20T03:14:14.352Z,102107.72
2022-12-20T03:15:46.386Z,102112.34
2022-12-20T03:17:18.495Z,102111.91
2022-12-20T03:18:50.563Z,102112.91
2022-12-20T03:20:22.524Z,102112.41
2022-12-20T03:21:54.513Z,102096.22
2022-12-20T03:23:26.559Z,102113.16
2022-12-20T03:24:58.519Z,102110.88
2022-12-20T03:26:30.507Z,102110.06
2022-12-20T03:28:02.533Z,102113.59
2022-12-20T03:29:34.573Z,102113.94
2022-12-20T03:31:06.772Z,102106.41
2022-12-20T03:32:38.942Z,102105.53
2022-12-20T03:34:13.281Z,102107.41
2022-12-20T03:35:45.219Z,102102.44
2022-12-20T03:37:17.214Z,102116.91
2022-12-20T03:38:49.688Z,102118.66
2022-12-20T03:40:22.058Z,102119.53
2022-12-20T03:41:54.052Z,102114.56
2022-12-20T03:43:26.026Z,102122.88
2022-12-20T03:44:58.095Z,102111.03
2022-12-20T03:46:30.351Z,102106.06
2022-12-20T03:48:02.479Z,102107.94
2022-12-20T03:49:34.431Z,102114.88
2022-12-20T03:51:06.837Z,102111.59
2022-12-20T03:52:38.969Z,102104.72
2022-12-20T03:54:10.977Z,102110.03
2022-12-20T03:55:45.798Z,102103.41
2022-12-20T03:57:17.888Z,102104.47
2022-12-20T03:58:49.923Z,102103.91
2022-12-20T04:00:22.047Z,102104.88
2022-12-20T04:01:54.183Z,102101.59
2022-12-20T04:03:26.315Z,102093.84
2022-12-20T04:04:58.429Z,102097.19
2022-12-20T04:06:30.575Z,102101.34
2022-12-20T04:08:02.696Z,102102.03
2022-12-20T04:09:34.818Z,102099.19
2022-12-20T04:11:19.462Z,102094.91
2022-12-20T04:12:51.448Z,102087.84
2022-12-20T04:14:23.488Z,102093.13
2022-12-20T04:16:00.310Z,102089.03
2022-12-20T04:17:32.867Z,102080.66
2022-12-20T04:19:04.982Z,102084.56
2022-12-20T04:20:37.114Z,102087.22
2022-12-20T04:22:09.210Z,102075.41
2022-12-20T04:23:42.360Z,102068.88
2022-12-20T04:25:21.812Z,102065.25
2022-12-20T04:26:53.981Z,102069.56
2022-12-20T04:28:25.957Z,102067.03
2022-12-20T04:29:58.029Z,102064.47
2022-12-20T04:31:30.013Z,102072.09
2022-12-20T04:33:01.998Z,102069.56
2022-12-20T04:34:33.998Z,102070.53
2022-12-20T04:36:06.484Z,102073.28
2022-12-20T04:37:38.602Z,102067.78
2022-12-20T04:39:10.653Z,102067.59
2022-12-20T04:40:42.751Z,102069.03
2022-12-20T04:42:14.828Z,102068.16
2022-12-20T04:43:46.880Z,102065.44
2022-12-20T04:45:18.961Z,102053.59
2022-12-20T04:46:51.068Z,102062.28
2022-12-20T04:50:19.612Z,102063.84
2022-12-20T04:51:51.698Z,102060.66
2022-12-20T04:53:42.928Z,102063.19
2022-12-20T04:55:15.142Z,102058.75
2022-12-20T04:56:47.353Z,102054.66
2022-12-20T04:58:19.514Z,102058.00
2022-12-20T04:59:51.552Z,102058.97
2022-12-20T05:01:23.676Z,102060.53
2022-12-20T05:02:56.078Z,102050.19
2022-12-20T05:04:33.239Z,102055.28
2022-12-20T05:06:11.741Z,102055.56
2022-12-20T05:07:43.784Z,102055.56
2022-12-20T05:09:15.755Z,102049.50
2022-12-20T05:10:48.392Z,102050.56
2022-12-20T05:12:20.447Z,102060.53
2022-12-20T05:13:52.608Z,102056.13
2022-12-20T05:15:24.675Z,102053.28
2022-12-20T05:16:56.659Z,102054.75
2022-12-20T05:18:28.920Z,102053.88
2022-12-20T05:20:00.999Z,102047.00
2022-12-20T05:21:51.467Z,102052.09
2022-12-20T05:23:42.056Z,102057.97
2022-12-20T05:25:33.224Z,102050.34
2022-12-20T05:27:05.364Z,102048.44
2022-12-20T05:28:37.337Z,102044.91
2022-12-20T05:30:09.827Z,102050.00
2022-12-20T05:31:42.043Z,102047.16
2022-12-20T05:33:14.139Z,102041.88
2022-12-20T05:34:46.389Z,102044.31
2022-12-20T05:36:18.636Z,102053.59
2022-12-20T05:37:50.637Z,102042.22
2022-12-20T05:39:22.707Z,102045.63
2022-12-20T05:40:54.802Z,102039.56
2022-12-20T05:42:26.820Z,102041.34
2022-12-20T05:43:59.087Z,102037.94
2022-12-20T05:45:31.226Z,102038.81
2022-12-20T05:47:03.402Z,102049.84
2022-12-20T05:48:35.723Z,102042.22
2022-12-20T05:50:12.266Z,102037.72
2022-12-20T05:51:48.748Z,102050.50
2022-12-20T05:53:20.725Z,102044.75
2022-12-20T05:54:52.789Z,102051.13
2022-12-20T05:56:24.825Z,102045.41
2022-12-20T05:57:56.926Z,102049.81
2022-12-20T05:59:28.940Z,102041.88
2022-12-20T06:01:02.976Z,102056.13
2022-12-20T06:02:35.283Z,102057.88
2022-12-20T06:04:08.735Z,102053.78
2022-12-20T06:05:41.560Z,102044.91
2022-12-20T06:07:13.654Z,102045.25
2022-12-20T06:08:45.650Z,102047.13
2022-12-20T06:10:17.800Z,102041.06
2022-12-20T06:11:49.796Z,102047.25
2022-12-20T06:13:21.848Z,102048.41
2022-12-20T06:14:53.890Z,102054.34
2022-12-20T06:16:27.566Z,102043.63
2022-12-20T06:17:59.678Z,102044.31
2022-12-20T06:19:31.774Z,102053.59
2022-12-20T06:21:03.998Z,102051.81
2022-12-20T06:22:37.960Z,102044.19
2022-12-20T06:24:10.022Z,102050.25
2022-12-20T06:25:42.363Z,102050.25
2022-12-20T06:27:14.470Z,102051.81
2022-12-20T06:30:19.774Z,102042.78
2022-12-20T06:31:51.911Z,102054.22
2022-12-20T06:33:24.725Z,102048.72
2022-12-20T06:34:56.793Z,102047.16
2022-12-20T06:36:28.936Z,102041.31
2022-12-20T06:38:01.019Z,102037.78
2022-12-20T06:39:33.048Z,102037.00
2022-12-20T06:41:05.255Z,102043.75
2022-12-20T06:42:37.410Z,102036.00
2022-12-20T06:44:09.436Z,102033.47
2022-12-20T06:45:42.479Z,102027.63
2022-12-20T06:47:14.911Z,102026.84
2022-12-20T06:48:46.946Z,102022.88
2022-12-20T06:50:19.114Z,102023.75
2022-12-20T06:51:51.157Z,102028.13
2022-12-20T06:53:23.198Z,102025.03
2022-12-20T06:54:55.349Z,102016.66
2022-12-20T06:56:27.345Z,102019.75
2022-12-20T06:58:02.152Z,102026.69
2022-12-20T06:59:34.232Z,102024.63
2022-12-20T07:01:06.472Z,102021.63
2022-12-20T07:02:39.195Z,102030.22
2022-12-20T07:04:11.330Z,102028.47
2022-12-20T07:05:43.407Z,102029.34
2022-12-20T07:07:15.440Z,102034.53
2022-12-20T07:08:47.465Z,102030.53
2022-12-20T07:10:19.685Z,102032.50
2022-12-20T07:11:52.524Z,102031.06
2022-12-20T07:13:24.566Z,102025.19
2022-12-20T07:14:57.877Z,102024.13
2022-12-20T07:16:30.034Z,102019.53
2022-12-20T07:18:02.075Z,102010.84
2022-12-20T07:19:36.464Z,102012.81
2022-12-20T07:21:09.500Z,102009.28
2022-12-20T07:22:41.722Z,102011.16
2022-12-20T07:24:16.550Z,102010.47
2022-12-20T07:25:59.384Z,102017.03
2022-12-20T07:27:31.694Z,102009.19
2022-12-20T07:29:04.013Z,102009.19
2022-12-20T07:30:37.813Z,102007.06
2022-12-20T07:32:10.029Z,102007.66
2022-12-20T07:33:42.171Z,102013.72
2022-12-20T07:35:15.046Z,102006.09
2022-12-20T07:36:47.224Z,102010.09
2022-12-20T07:38:19.626Z,102007.56
2022-12-20T07:39:51.622Z,102001.50
2022-12-20T07:41:25.427Z,102002.38
2022-12-20T07:42:57.509Z,101998.97
2022-12-20T07:44:29.599Z,101999.84
2022-12-20T07:46:05.235Z,102005.59
2022-12-20T07:47:37.460Z,102009.69
2022-12-20T07:49:09.885Z,102008.59
2022-12-20T07:50:42.308Z,102002.44
2022-12-20T07:52:14.972Z,101998.16
2022-12-20T07:53:56.684Z,102006.81
2022-12-20T07:55:31.551Z,101999.13
2022-12-20T07:57:12.822Z,102001.09
2022-12-20T07:58:45.272Z,101993.38
2022-12-20T08:00:19.079Z,101996.88
2022-12-20T08:01:51.655Z,102001.28
2022-12-20T08:03:33.846Z,102003.94
2022-12-20T08:05:08.843Z,102011.56
2022-12-20T08:06:41.570Z,102002.16
2022-12-20T08:08:14.338Z,102006.38
2022-12-20T08:09:46.708Z,102004.50
2022-12-20T08:11:19.132Z,101996.19
2022-12-20T08:12:52.101Z,101988.41
2022-12-20T08:14:24.314Z,101985.75
2022-12-20T08:15:56.389Z,101989.56
2022-12-20T08:17:28.434Z,101991.63
2022-12-20T08:19:00.858Z,101988.31
2022-12-20T08:20:33.324Z,101985.00
2022-12-20T08:22:06.599Z,101982.66
2022-12-20T08:23:38.704Z,101981.66
2022-12-20T08:25:12.205Z,101989.50
2022-12-20T08:26:44.300Z,101981.09
2022-12-20T08:28:16.554Z,101991.25
2022-12-20T08:29:49.183Z,101991.34
2022-12-20T08:31:21.405Z,101983.63
2022-12-20T08:32:53.628Z,101986.97
2022-12-20T08:34:25.647Z,101987.94
2022-12-20T08:36:03.641Z,101995.06
2022-12-20T08:37:35.871Z,101990.66
2022-12-20T08:39:08.435Z,101994.88
2022-12-20T08:40:40.447Z,101987.94
2022-12-20T08:42:13.085Z,101981.72
2022-12-20T08:43:45.219Z,101976.63
2022-12-20T08:45:19.363Z,101983.34
2022-12-20T08:46:51.888Z,101981.50
2022-12-20T08:48:23.950Z,101980.78
2022-12-20T08:49:56.117Z,101986.75
2022-12-20T08:51:29.533Z,101985.19
2022-12-20T08:53:01.601Z,101982.56
2022-12-20T08:54:33.669Z,101982.75
2022-12-20T08:56:08.040Z,101978.84
2022-12-20T08:59:12.012Z,101982.47
2022-12-20T09:00:44.355Z,101977.38
2022-12-20T09:02:16.882Z,101972.31
2022-12-20T09:03:49.460Z,101973.97
2022-12-20T09:05:21.842Z,101969.06
2022-12-20T09:06:53.959Z,101965.78
2022-12-20T09:08:26.509Z,101961.56
2022-12-20T09:09:58.485Z,101957.75
2022-12-20T09:11:31.143Z,101957.63
2022-12-20T09:13:03.175Z,101955.31
2022-12-20T09:14:35.305Z,101959.50
2022-12-20T09:16:08.668Z,101954.91
2022-12-20T09:17:40.594Z,101950.53
2022-12-20T09:19:13.567Z,101947.59
2022-12-20T09:20:45.946Z,101944.97
2022-12-20T09:22:17.958Z,101936.44
2022-12-20T09:23:55.267Z,101940.28
2022-12-20T09:25:28.560Z,101932.34
2022-12-20T09:27:00.579Z,101933.31
2022-12-20T09:28:33.539Z,101930.09
2022-12-20T09:30:06.480Z,101937.03
2022-12-20T09:31:38.570Z,101935.25
2022-12-20T09:33:10.848Z,101930.88
2022-12-20T09:34:42.991Z,101932.72
2022-12-20T09:36:18.001Z,101924.34
2022-12-20T09:37:50.065Z,101922.09
2022-12-20T09:39:22.103Z,101924.63
2022-12-20T09:40:56.667Z,101915.44
2022-12-20T09:42:29.344Z,101917.19
2022-12-20T09:44:06.171Z,101902.91
2022-12-20T09:45:38.401Z,101896.59
2022-12-20T09:47:20.328Z,101898.53
2022-12-20T09:48:52.716Z,101897.16
2022-12-20T09:51:17.119Z,101882.19
2022-12-20T09:53:00.924Z,101879.66
2022-12-20T09:54:42.484Z,101874.28
2022-12-20T09:56:20.820Z,101878.09
2022-12-20T09:58:02.015Z,101873.03
2022-12-20T09:59:39.553Z,101874.59
2022-12-20T10:01:23.174Z,101860.09
2022-12-20T10:03:08.249Z,101866.16
2022-12-20T10:04:42.520Z,101857.16
2022-12-20T10:06:23.514Z,101855.97
2022-12-20T10:08:10.703Z,101858.31
2022-12-20T10:10:14.999Z,101847.94
2022-12-20T10:12:10.296Z,101846.22
2022-12-20T10:13:57.288Z,101841.22
2022-12-20T10:15:34.215Z,101832.53
2022-12-20T10:17:12.729Z,101828.13
2022-12-20T10:19:02.919Z,101822.25
2022-12-20T10:20:43.713Z,101817.69
2022-12-20T10:22:26.981Z,101819.34
2022-12-20T10:23:58.893Z,101820.53
2022-12-20T10:25:33.348Z,101819.75
2022-12-20T10:27:16.079Z,101810.75
2022-12-20T10:28:53.687Z,101809.69
2022-12-20T10:30:28.033Z,101803.22
2022-12-20T10:32:02.072Z,101805.16
2022-12-20T10:33:34.737Z,101805.97
2022-12-20T10:35:17.425Z,101803.09
2022-12-20T10:36:50.608Z,101800.47
2022-12-20T10:38:24.400Z,101805.38
2022-12-20T10:39:58.446Z,101792.28
2022-12-20T10:41:42.955Z,101792.94
2022-12-20T10:43:21.089Z,101791.91
2022-12-20T10:44:53.928Z,101791.69
2022-12-20T10:46:55.151Z,101787.78
2022-12-20T10:48:30.086Z,101783.59
2022-12-20T10:50:20.660Z,101769.69
2022-12-20T10:51:59.007Z,101777.44
2022-12-20T10:53:32.476Z,101776.44
2022-12-20T10:55:43.596Z,101768.34
2022-12-20T10:57:29.521Z,101770.97
2022-12-20T10:59:03.005Z,101763.06
2022-12-20T11:00:35.147Z,101761.22
2022-12-20T11:02:31.746Z,101755.72
2022-12-20T11:04:26.288Z,101750.78
2022-12-20T11:06:06.196Z,101749.91
2022-12-20T11:08:34.973Z,101755.94
2022-12-20T11:10:02.463Z,101751.03
2022-12-20T11:11:34.849Z,101740.97
2022-12-20T11:13:07.029Z,101741.25
2022-12-20T11:14:43.740Z,101735.78
2022-12-20T11:16:45.129Z,101733.56
2022-12-20T11:18:40.956Z,101742.88
2022-12-20T11:20:22.467Z,101743.56
2022-12-20T11:22:00.569Z,101727.94
2022-12-20T11:23:53.526Z,101735.94
2022-12-20T11:25:56.902Z,101739.09
2022-12-20T11:27:33.219Z,101740.28
2022-12-20T11:29:28.436Z,101739.09
2022-12-20T11:31:04.661Z,101735.03
2022-12-20T11:32:57.913Z,101736.38
2022-12-20T11:34:48.187Z,101735.66
2022-12-20T11:38:02.724Z,101731.19
2022-12-20T11:39:58.199Z,101729.78
2022-12-20T11:41:53.486Z,101733.47
2022-12-20T11:44:23.237Z,101730.38
2022-12-20T11:46:07.474Z,101728.75
2022-12-20T11:48:03.490Z,101718.59
2022-12-20T11:49:46.329Z,101719.25
2022-12-20T11:51:28.412Z,101720.66
2022-12-20T11:53:17.494Z,101721.97
2022-12-20T11:55:10.459Z,101705.34
2022-12-20T11:56:47.632Z,101713.94
2022-12-20T11:58:33.267Z,101713.84
2022-12-20T12:00:06.889Z,101716.81
2022-12-20T12:01:58.244Z,101717.09
2022-12-20T12:03:36.235Z,101719.69
2022-12-20T12:05:19.340Z,101715.31
2022-12-20T12:07:01.998Z,101711.09
2022-12-20T12:08:52.055Z,101709.47
2022-12-20T12:12:21.871Z,101695.41
2022-12-20T12:13:54.638Z,101707.31
2022-12-20T12:15:50.961Z,101697.31
2022-12-20T12:17:49.207Z,101700.22
2022-12-20T12:19:21.762Z,101700.88
2022-12-20T12:21:09.594Z,101703.50
2022-12-20T12:22:43.654Z,101693.97
2022-12-20T12:24:28.014Z,101691.69
2022-12-20T12:26:04.437Z,101690.72
2022-12-20T12:27:36.853Z,101699.22
2022-12-20T12:29:17.369Z,101700.56
2022-12-20T12:31:00.204Z,101702.22
2022-12-20T12:32:44.559Z,101698.72
2022-12-20T12:34:48.944Z,101695.19
2022-12-20T12:36:29.742Z,101696.53
2022-12-20T12:38:19.560Z,101699.59
2022-12-20T12:40:29.106Z,101691.09
2022-12-20T12:42:23.851Z,101698.78
2022-12-20T12:44:18.737Z,101699.84
2022-12-20T12:45:53.003Z,101702.03
2022-12-20T12:47:46.855Z,101694.88
2022-12-20T12:49:21.798Z,101695.38
2022-12-20T12:50:57.108Z,101686.78
2022-12-20T12:52:42.849Z,101684.59
2022-12-20T12:54:38.733Z,101687.34
2022-12-20T12:56:46.200Z,101685.06
2022-12-20T12:58:24.682Z,101682.75
2022-12-20T12:59:56.781Z,101684.94
2022-12-20T13:01:44.024Z,101689.59
2022-12-20T13:03:17.623Z,101680.31
2022-12-20T13:05:04.667Z,101684.00
2022-12-20T13:06:36.692Z,101698.09
2022-12-20T13:08:18.941Z,101689.88
2022-12-20T13:09:50.998Z,101682.56
2022-12-20T13:11:31.237Z,101678.88
2022-12-20T13:13:13.973Z,101679.97
2022-12-20T13:14:45.960Z,101679.75
2022-12-20T13:17:02.394Z,101682.94
2022-12-20T13:18:24.097Z,101667.19
2022-12-20T13:19:56.744Z,101669.81
2022-12-20T13:21:32.229Z,101673.44
2022-12-20T13:23:13.041Z,101666.78
2022-12-20T13:24:57.496Z,101664.03
2022-12-20T13:26:52.593Z,101660.91
2022-12-20T13:28:24.826Z,101652.81
2022-12-20T13:30:04.929Z,101657.22
2022-12-20T13:31:37.177Z,101658.69
2022-12-20T13:33:45.931Z,101651.94
2022-12-20T13:35:28.258Z,101657.81
2022-12-20T13:37:00.419Z,101654.72
2022-12-20T13:38:47.396Z,101645.44
2022-12-20T13:40:43.839Z,101648.66
2022-12-20T13:42:39.215Z,101648.88
2022-12-20T13:44:17.082Z,101651.47
2022-12-20T13:45:52.419Z,101647.38
2022-12-20T13:47:37.809Z,101638.47
2022-12-20T13:49:12.594Z,101639.50
2022-12-20T13:50:53.715Z,101646.53
2022-12-20T13:52:33.558Z,101634.09
2022-12-20T13:54:08.055Z,101637.25
2022-12-20T13:55:42.841Z,101630.31
2022-12-20T13:57:22.346Z,101624.44
2022-12-20T13:58:55.432Z,101622.69
2022-12-20T14:00:28.119Z,101630.59
2022-12-20T14:02:02.451Z,101627.25
2022-12-20T14:03:41.449Z,101615.16
2022-12-20T14:05:17.791Z,101614.81
2022-12-20T14:07:10.270Z,101619.28
2022-12-20T14:08:46.717Z,101612.47
2022-12-20T14:10:24.985Z,101618.22
2022-12-20T14:12:04.095Z,101611.41
2022-12-20T14:13:36.105Z,101610.16
2022-12-20T14:15:25.914Z,101611.41
2022-12-20T14:17:15.956Z,101605.50
2022-12-20T14:19:08.009Z,101602.97
2022-12-20T14:20:40.319Z,101604.38
2022-12-20T14:22:12.844Z,101595.63
2022-12-20T14:23:48.864Z,101600.88
2022-12-20T14:25:30.926Z,101593.09
2022-12-20T14:27:03.034Z,101588.25
2022-12-20T14:28:44.731Z,101597.97
2022-12-20T14:30:46.149Z,101594.47
2022-12-20T14:32:21.415Z,101590.97
2022-12-20T14:34:07.016Z,101591.81
2022-12-20T14:35:47.743Z,101585.78
2022-12-20T14:37:39.476Z,101591.81
2022-12-20T14:39:26.731Z,101581.75
2022-12-20T14:40:58.823Z,101578.09
2022-12-20T14:42:41.001Z,101583.34
2022-12-20T14:44:22.914Z,101578.00
2022-12-20T14:46:31.213Z,101578.97
2022-12-20T14:49:41.156Z,101575.44
2022-12-20T14:51:13.923Z,101568.00
2022-12-20T14:52:46.124Z,101570.38
2022-12-20T14:55:05.867Z,101570.38
2022-12-20T14:56:26.448Z,101567.72
2022-12-20T14:58:07.207Z,101563.44
2022-12-20T14:59:39.181Z,101557.31
2022-12-20T15:01:22.325Z,101558.44
2022-12-20T15:02:59.634Z,101563.53
2022-12-20T15:04:33.630Z,101556.50
2022-12-20T15:06:05.914Z,101561.31
2022-12-20T15:07:41.999Z,101554.66
2022-12-20T15:09:15.084Z,101555.38
2022-12-20T15:11:11.091Z,101558.38
2022-12-20T15:12:43.295Z,101544.69
2022-12-20T15:14:36.951Z,101562.31
2022-12-20T15:16:20.233Z,101568.09
2022-12-20T15:19:25.132Z,101561.88
2022-12-20T15:21:20.051Z,101570.63
2022-12-20T15:22:52.154Z,101570.47
2022-12-20T15:24:26.131Z,101564.59
2022-12-20T15:25:58.254Z,101565.91
2022-12-20T15:27:30.288Z,101562.66
2022-12-20T15:29:02.882Z,101566.66
2022-12-20T15:30:34.821Z,101565.63
2022-12-20T15:32:30.072Z,101568.19
2022-12-20T15:34:05.320Z,101569.75
2022-12-20T15:35:37.422Z,101570.09
2022-12-20T15:37:18.622Z,101570.97
2022-12-20T15:39:11.852Z,101564.22
2022-12-20T15:40:49.135Z,101565.38
2022-12-20T15:42:23.224Z,101559.03
2022-12-20T15:44:00.532Z,101563.78
2022-12-20T15:45:32.947Z,101555.13
2022-12-20T15:47:05.133Z,101561.88
2022-12-20T15:48:37.255Z,101559.22
2022-12-20T15:50:11.941Z,101556.25
2022-12-20T15:51:45.136Z,101568.34
2022-12-20T15:53:22.917Z,101558.28
2022-12-20T15:54:54.898Z,101554.66
2022-12-20T15:56:27.975Z,101552.03
2022-12-20T15:58:00.045Z,101558.53
2022-12-20T15:59:59.016Z,101554.84
2022-12-20T16:01:40.802Z,101553.94
2022-12-20T16:03:16.044Z,101555.22
2022-12-20T16:04:48.493Z,101548.38
2022-12-20T16:06:20.655Z,101550.19
2022-12-20T16:07:52.733Z,101551.00
2022-12-20T16:09:26.237Z,101540.84
2022-12-20T16:10:59.999Z,101539.06
2022-12-20T16:12:36.410Z,101546.09
2022-12-20T16:14:15.109Z,101535.22
2022-12-20T16:15:47.677Z,101547.25
2022-12-20T16:17:19.769Z,101544.88
2022-12-20T16:18:54.066Z,101542.16
2022-12-20T16:20:27.827Z,101540.28
2022-12-20T16:21:59.871Z,101534.19
2022-12-20T16:23:31.891Z,101534.88
2022-12-20T16:25:07.250Z,101527.94
2022-12-20T16:26:39.300Z,101528.75
2022-12-20T16:28:11.399Z,101523.81
2022-12-20T16:29:43.661Z,101525.75
2022-12-20T16:31:33.686Z,101522.59
2022-12-20T16:33:06.888Z,101515.59
2022-12-20T16:34:38.926Z,101511.31
2022-12-20T16:36:12.672Z,101511.69
2022-12-20T16:37:44.746Z,101515.09
2022-12-20T16:39:17.735Z,101509.13
2022-12-20T16:40:50.069Z,101509.91
2022-12-20T16:42:24.804Z,101502.13
2022-12-20T16:43:59.440Z,101501.41
2022-12-20T16:45:33.237Z,101501.94
2022-12-20T16:47:05.537Z,101492.13
2022-12-20T16:48:40.264Z,101493.91
2022-12-20T16:50:12.746Z,101483.91
2022-12-20T16:51:47.003Z,101478.38
2022-12-20T16:53:19.672Z,101483.19
2022-12-20T16:54:52.009Z,101482.41
2022-12-20T16:56:24.719Z,101485.00
2022-12-20T16:57:56.908Z,101480.75
2022-12-20T16:59:29.077Z,101479.16
2022-12-20T17:01:01.263Z,101478.28
2022-12-20T17:02:34.681Z,101469.09
2022-12-20T17:04:07.158Z,101476.72
2022-12-20T17:05:39.912Z,101469.63
2022-12-20T17:07:11.908Z,101472.41
2022-12-20T17:10:31.034Z,101462.97
2022-12-20T17:12:04.564Z,101471.38
2022-12-20T17:13:36.514Z,101464.97
2022-12-20T17:15:15.990Z,101462.16
2022-12-20T17:16:48.316Z,101460.94
2022-12-20T17:18:20.445Z,101465.84
2022-12-20T17:19:52.439Z,101461.75
2022-12-20T17:21:27.400Z,101456.66
2022-12-20T17:22:59.486Z,101472.97
2022-12-20T17:24:31.528Z,101471.28
2022-12-20T17:27:35.550Z,101467.19
2022-12-20T17:29:08.034Z,101456.91
2022-12-20T17:30:40.038Z,101463.81
2022-12-20T17:32:23.813Z,101454.00
2022-12-20T17:33:59.772Z,101449.81
2022-12-20T17:35:33.072Z,101443.69
2022-12-20T17:37:05.028Z,101439.56
2022-12-20T17:38:37.134Z,101439.56
2022-12-20T17:40:10.009Z,101439.72
2022-12-20T17:41:45.770Z,101427.13
2022-12-20T17:43:18.034Z,101434.66
2022-12-20T17:44:50.179Z,101431.97
2022-12-20T17:46:22.652Z,101431.63
2022-12-20T17:47:55.366Z,101425.09
2022-12-20T17:49:27.558Z,101432.72
2022-12-20T17:50:59.683Z,101423.19
2022-12-20T17:52:31.899Z,101420.84
2022-12-20T17:54:04.193Z,101431.44
2022-12-20T17:55:36.332Z,101423.09
2022-12-20T17:57:15.714Z,101420.66
2022-12-20T17:58:47.953Z,101423.81
2022-12-20T18:00:24.189Z,101417.16
2022-12-20T18:01:56.630Z,101422.06
2022-12-20T18:04:02.268Z,101420.16
2022-12-20T18:05:21.797Z,101417.00
2022-12-20T18:06:53.947Z,101423.81
2022-12-20T18:08:26.169Z,101423.09
2022-12-20T18:09:58.210Z,101417.25
2022-12-20T18:11:30.518Z,101423.09
2022-12-20T18:13:02.590Z,101420.91
2022-12-20T18:14:34.650Z,101419.19
2022-12-20T18:16:07.619Z,101424.50
2022-12-20T18:17:40.126Z,101424.50
2022-12-20T18:19:19.079Z,101423.13
2022-12-20T18:20:51.248Z,101419.78
2022-12-20T18:22:23.291Z,101424.94
2022-12-20T18:23:55.669Z,101412.31
2022-12-20T18:25:27.702Z,101414.53
2022-12-20T18:26:59.776Z,101420.66
2022-12-20T18:28:31.909Z,101416.44
2022-12-20T18:30:04.995Z,101414.78
2022-12-20T18:31:37.359Z,101408.28
2022-12-20T18:33:09.455Z,101410.81
2022-12-20T18:34:41.478Z,101409.25
2022-12-20T18:36:18.769Z,101411.78
2022-12-20T18:37:50.922Z,101414.78
2022-12-20T18:39:23.070Z,101403.06
2022-12-20T18:40:55.127Z,101416.53